Randolph, Alabama
Current Conditions -  °F | °C
As of 8:53 PM on Monday 22 Dec 2014 (Local Time) from KEET Reporting Station
Overcast Overcast  
Wind Chill: 12°   Ceiling: 400
Heat Index: 12°   Visibility: 10mi
Dew Point: 11°   Wind: 6mph
Humidity: 96%   Direction: NA
Pressure: 29.83"   Gusts: NA
Location:  32.9°N, 86.91°W
Report Text: KEET 230253Z AUTO VRB05KT 10SM OVC004 12/11 A2983 RMK AO2 RAB08E17 SLP099 P0000 60001 T01170111 50007
Loading
Personal Weather Stations






























Interactive Weather Map New forecast layout! Learn more

10-Day Weather Forecast

Advertisements
Track Severe Weather on mobile